Terminal Aerodrome Forecast
Issued by NWS

Home | Current Version | Previous Version | Text Only | Print | Product List | Glossary On
Versions: 1 2 3 4 5 6 7 8 9 10 11 12 13 14 15 16 17 18 19 20 21 22 23 24 25 26 27 28
384
FTUS43 KLOT 041734
TAFDPA
TAF
KDPA 041734Z 0418/0518 33015G21KT P6SM VCSH BKN035
     FM050000 36011G16KT P6SM BKN040
     FM051500 02010KT P6SM SCT030 SCT250=

USA.gov is the U.S. government's official web portal to all federal, state and local government web resources and services.